createdAt,value
2023-01-29T07:32:34.297Z,17.25
2023-01-29T07:35:00.805Z,17.10
2023-01-29T07:37:27.361Z,20.00
2023-01-29T07:39:54.069Z,18.40
2023-01-29T07:42:20.602Z,21.73
2023-01-29T07:44:47.108Z,22.55
2023-01-29T07:47:15.728Z,16.92
2023-01-29T07:49:42.875Z,16.58
2023-01-29T07:52:09.464Z,16.13
2023-01-29T07:54:36.009Z,15.27
2023-01-29T07:57:02.535Z,16.85
2023-01-29T07:59:29.134Z,15.73
2023-01-29T08:01:57.003Z,16.30
2023-01-29T08:04:23.976Z,16.73
2023-01-29T08:06:52.619Z,16.27
2023-01-29T08:09:19.269Z,16.48
2023-01-29T08:11:45.843Z,16.00
2023-01-29T08:14:12.485Z,15.60
2023-01-29T08:16:39.155Z,15.90
2023-01-29T08:19:07.332Z,16.60
2023-01-29T08:21:33.995Z,16.58
2023-01-29T08:26:27.969Z,16.50
2023-01-29T08:28:54.600Z,16.10
2023-01-29T08:31:21.330Z,15.35
2023-01-29T08:33:48.297Z,15.60
2023-01-29T08:36:15.165Z,15.63
2023-01-29T08:38:43.284Z,15.15
2023-01-29T08:41:09.820Z,15.63
2023-01-29T08:43:37.027Z,18.40
2023-01-29T08:46:05.502Z,15.68
2023-01-29T08:48:32.453Z,15.13
2023-01-29T08:51:00.496Z,15.50
2023-01-29T08:53:28.264Z,14.87
2023-01-29T08:55:54.938Z,15.07
2023-01-29T08:58:21.527Z,15.48
2023-01-29T09:00:48.051Z,15.85
2023-01-29T09:03:14.707Z,15.13
2023-01-29T09:05:41.525Z,14.87
2023-01-29T09:08:09.517Z,15.25
2023-01-29T09:10:36.450Z,15.57
2023-01-29T09:13:03.777Z,15.25
2023-01-29T09:15:30.898Z,15.40
2023-01-29T09:17:57.490Z,15.10
2023-01-29T09:20:24.076Z,14.85
2023-01-29T09:22:53.591Z,14.60
2023-01-29T09:25:20.531Z,15.27
2023-01-29T09:27:47.645Z,15.93
2023-01-29T09:30:14.692Z,15.60
2023-01-29T09:32:53.486Z,15.38
2023-01-29T09:35:23.823Z,15.93
2023-01-29T09:37:51.321Z,15.27
2023-01-29T09:40:26.023Z,15.65
2023-01-29T09:43:07.057Z,15.37
2023-01-29T09:45:34.430Z,15.35
2023-01-29T09:48:03.325Z,16.08
2023-01-29T09:50:32.793Z,15.90
2023-01-29T09:53:04.931Z,15.93
2023-01-29T09:55:37.496Z,15.30
2023-01-29T09:58:14.081Z,15.50
2023-01-29T10:00:49.848Z,14.82
